createdAt,value
2017-06-19T00:00:20.423Z,1016.47
2017-06-19T00:01:20.409Z,1016.49
2017-06-19T00:02:20.393Z,1016.48
2017-06-19T00:03:20.382Z,1016.49
2017-06-19T00:04:20.372Z,1016.47
2017-06-19T00:05:20.356Z,1016.48
2017-06-19T00:06:20.341Z,1016.46
2017-06-19T00:07:20.332Z,1016.44
2017-06-19T00:08:20.316Z,1016.46
2017-06-19T00:09:20.402Z,1016.43
2017-06-19T00:10:20.293Z,1016.42
2017-06-19T00:11:20.329Z,1016.44
2017-06-19T00:12:20.264Z,1016.43
2017-06-19T00:13:20.302Z,1016.46
2017-06-19T00:14:20.240Z,1016.44
2017-06-19T00:15:20.326Z,1016.42
2017-06-19T00:16:20.212Z,1016.43
2017-06-19T00:17:20.210Z,1016.42
2017-06-19T00:18:20.191Z,1016.42
2017-06-19T00:19:20.179Z,1016.4
2017-06-19T00:20:20.162Z,1016.42
2017-06-19T00:21:20.152Z,1016.44
2017-06-19T00:22:20.142Z,1016.46
2017-06-19T00:23:20.174Z,1016.47
2017-06-19T00:24:20.108Z,1016.48
2017-06-19T00:25:20.102Z,1016.45
2017-06-19T00:26:20.084Z,1016.49
2017-06-19T00:27:20.071Z,1016.45
2017-06-19T00:28:20.061Z,1016.46
2017-06-19T00:29:20.045Z,1016.45
2017-06-19T00:30:20.031Z,1016.45
2017-06-19T00:31:20.019Z,1016.42
2017-06-19T00:32:20.010Z,1016.4
2017-06-19T00:33:20.004Z,1016.43
2017-06-19T00:34:19.978Z,1016.41
2017-06-19T00:35:19.970Z,1016.38
2017-06-19T00:36:19.961Z,1016.4
2017-06-19T00:37:19.941Z,1016.37
2017-06-19T00:38:19.932Z,1016.4
2017-06-19T00:39:19.921Z,1016.37
2017-06-19T00:40:19.901Z,1016.36
2017-06-19T00:41:19.892Z,1016.35
2017-06-19T00:42:19.891Z,1016.34
2017-06-19T00:43:19.861Z,1016.34
2017-06-19T00:44:19.854Z,1016.32
2017-06-19T00:45:19.841Z,1016.29
2017-06-19T00:46:19.827Z,1016.3
2017-06-19T00:47:19.813Z,1016.28
2017-06-19T00:48:19.803Z,1016.32
2017-06-19T00:49:19.792Z,1016.31
2017-06-19T00:50:19.770Z,1016.3
2017-06-19T00:51:19.757Z,1016.3
2017-06-19T00:52:19.752Z,1016.29
2017-06-19T00:53:19.733Z,1016.31
2017-06-19T00:54:19.723Z,1016.29
2017-06-19T00:55:19.710Z,1016.33
2017-06-19T00:56:19.694Z,1016.29
2017-06-19T00:57:19.681Z,1016.28
2017-06-19T00:58:19.673Z,1016.3
2017-06-19T00:59:19.651Z,1016.29
2017-06-19T01:00:19.640Z,1016.28
2017-06-19T01:01:19.631Z,1016.27
2017-06-19T01:02:19.610Z,1016.22
2017-06-19T01:03:19.603Z,1016.26
2017-06-19T01:04:19.587Z,1016.23
2017-06-19T01:05:19.574Z,1016.24
2017-06-19T01:06:19.563Z,1016.24
2017-06-19T01:07:19.548Z,1016.23
2017-06-19T01:08:19.530Z,1016.22
2017-06-19T01:09:19.521Z,1016.21
2017-06-19T01:10:19.512Z,1016.2
2017-06-19T01:11:19.491Z,1016.16
2017-06-19T01:12:19.484Z,1016.18
2017-06-19T01:13:19.467Z,1016.16
2017-06-19T01:14:19.454Z,1016.16
2017-06-19T01:15:19.440Z,1016.16
2017-06-19T01:16:19.432Z,1016.17
2017-06-19T01:17:19.413Z,1016.13
2017-06-19T01:18:19.402Z,1016.15
2017-06-19T01:19:19.390Z,1016.15
2017-06-19T01:20:19.384Z,1016.16
2017-06-19T01:21:19.363Z,1016.16
2017-06-19T01:22:19.353Z,1016.16
2017-06-19T01:23:19.336Z,1016.16
2017-06-19T01:24:19.322Z,1016.18
2017-06-19T01:25:19.313Z,1016.14
2017-06-19T01:26:19.296Z,1016.13
2017-06-19T01:27:19.283Z,1016.12
2017-06-19T01:28:19.273Z,1016.13
2017-06-19T01:29:19.280Z,1016.1
2017-06-19T01:30:19.293Z,1016.1
2017-06-19T01:31:19.233Z,1016.11
2017-06-19T01:32:19.212Z,1016.18
2017-06-19T01:33:19.202Z,1016.15
2017-06-19T01:34:19.192Z,1016.21
2017-06-19T01:35:19.173Z,1016.2
2017-06-19T01:36:19.163Z,1016.15
2017-06-19T01:37:19.153Z,1016.17
2017-06-19T01:38:19.134Z,1016.14
2017-06-19T01:39:19.124Z,1016.12
2017-06-19T01:40:19.112Z,1016.11
2017-06-19T01:41:19.092Z,1016.13
2017-06-19T01:42:19.079Z,1016.08
2017-06-19T01:43:19.067Z,1016.12
2017-06-19T01:44:19.051Z,1016.09
2017-06-19T01:45:19.041Z,1016.11
2017-06-19T01:46:19.027Z,1016.1
2017-06-19T01:47:19.013Z,1016.11
2017-06-19T01:48:19.002Z,1016.09
2017-06-19T01:49:18.982Z,1016.06
2017-06-19T01:50:18.973Z,1016.04
2017-06-19T01:51:18.957Z,1016.04
2017-06-19T01:52:18.950Z,1016.01
2017-06-19T01:53:18.934Z,1016.04
2017-06-19T01:54:18.919Z,1016.01
2017-06-19T01:55:18.902Z,1015.99
2017-06-19T01:56:18.889Z,1015.98
2017-06-19T01:57:18.881Z,1015.96
2017-06-19T01:58:18.862Z,1015.95
2017-06-19T01:59:18.853Z,1015.99
2017-06-19T02:00:18.832Z,1015.98
2017-06-19T02:01:18.822Z,1015.93
2017-06-19T02:02:18.808Z,1015.95
2017-06-19T02:03:18.792Z,1015.93
2017-06-19T02:04:18.779Z,1015.95
2017-06-19T02:05:18.767Z,1015.93
2017-06-19T02:06:18.753Z,1015.92
2017-06-19T02:07:18.736Z,1015.89
2017-06-19T02:08:18.726Z,1015.89
2017-06-19T02:09:18.713Z,1015.88
2017-06-19T02:10:18.702Z,1015.89
2017-06-19T02:11:18.682Z,1015.88
2017-06-19T02:12:18.671Z,1015.89
2017-06-19T02:13:18.655Z,1015.89
2017-06-19T02:14:18.639Z,1015.91
2017-06-19T02:15:18.631Z,1015.89
2017-06-19T02:16:18.613Z,1015.9
2017-06-19T02:17:18.599Z,1015.87
2017-06-19T02:18:18.593Z,1015.91
2017-06-19T02:19:18.571Z,1015.88
2017-06-19T02:20:18.556Z,1015.89
2017-06-19T02:21:18.543Z,1015.87
2017-06-19T02:22:18.529Z,1015.9
2017-06-19T02:23:18.521Z,1015.91
2017-06-19T02:24:18.503Z,1015.92
2017-06-19T02:25:18.490Z,1015.92
2017-06-19T02:26:18.472Z,1015.88
2017-06-19T02:27:18.464Z,1015.91
2017-06-19T02:28:18.451Z,1015.94
2017-06-19T02:29:18.431Z,1015.91
2017-06-19T02:30:18.423Z,1015.93
2017-06-19T02:31:18.411Z,1015.94
2017-06-19T02:32:18.391Z,1015.91
2017-06-19T02:33:18.383Z,1015.92
2017-06-19T02:34:18.373Z,1015.91
2017-06-19T02:35:18.348Z,1015.93
2017-06-19T02:36:18.343Z,1015.94
2017-06-19T02:37:18.323Z,1015.94
2017-06-19T02:38:18.312Z,1015.94
2017-06-19T02:39:18.296Z,1015.94
2017-06-19T02:40:18.281Z,1015.92
2017-06-19T02:41:18.273Z,1015.96
2017-06-19T02:42:18.252Z,1015.96
2017-06-19T02:43:18.316Z,1015.98
2017-06-19T02:44:18.226Z,1015.97
2017-06-19T02:45:18.210Z,1015.97
2017-06-19T02:46:18.204Z,1015.95
2017-06-19T02:47:18.193Z,1015.93
2017-06-19T02:48:18.170Z,1015.95
2017-06-19T02:49:18.162Z,1015.92
2017-06-19T02:50:18.140Z,1015.87
2017-06-19T02:51:18.132Z,1015.86
2017-06-19T02:52:18.122Z,1015.87
2017-06-19T02:53:18.105Z,1015.86
2017-06-19T02:54:18.086Z,1015.85
2017-06-19T02:55:18.073Z,1015.83
2017-06-19T02:56:18.056Z,1015.86
2017-06-19T02:57:18.045Z,1015.81
2017-06-19T02:58:18.029Z,1015.85
2017-06-19T02:59:18.021Z,1015.83
2017-06-19T03:00:18.002Z,1015.8
2017-06-19T03:01:17.994Z,1015.8
2017-06-19T03:02:17.978Z,1015.77
2017-06-19T03:03:17.961Z,1015.79
2017-06-19T03:04:17.946Z,1015.78
2017-06-19T03:05:17.932Z,1015.78
2017-06-19T03:06:17.923Z,1015.79
2017-06-19T03:07:17.904Z,1015.77
2017-06-19T03:08:17.888Z,1015.73
2017-06-19T03:09:17.884Z,1015.73
2017-06-19T03:10:17.863Z,1015.73
2017-06-19T03:11:17.851Z,1015.71
2017-06-19T03:12:17.852Z,1015.69
2017-06-19T03:13:17.823Z,1015.68
2017-06-19T03:14:17.806Z,1015.7
2017-06-19T03:15:17.790Z,1015.68
2017-06-19T03:16:17.782Z,1015.69
2017-06-19T03:17:17.763Z,1015.7
2017-06-19T03:18:17.754Z,1015.67
2017-06-19T03:19:17.731Z,1015.63
2017-06-19T03:20:17.724Z,1015.67
2017-06-19T03:21:17.710Z,1015.67
2017-06-19T03:22:17.694Z,1015.66
2017-06-19T03:23:17.674Z,1015.66
2017-06-19T03:24:17.662Z,1015.61
2017-06-19T03:25:17.651Z,1015.64
2017-06-19T03:26:17.635Z,1015.65
2017-06-19T03:27:17.621Z,1015.62
2017-06-19T03:28:17.605Z,1015.63
2017-06-19T03:29:17.590Z,1015.62
2017-06-19T03:30:17.578Z,1015.62
2017-06-19T03:31:17.562Z,1015.63
2017-06-19T03:32:17.552Z,1015.63
2017-06-19T03:33:17.540Z,1015.64
2017-06-19T03:34:17.525Z,1015.63
2017-06-19T03:35:17.511Z,1015.63
2017-06-19T03:36:17.492Z,1015.62
2017-06-19T03:37:17.492Z,1015.67
2017-06-19T03:38:17.462Z,1015.64
2017-06-19T03:39:17.450Z,1015.65
2017-06-19T03:40:17.438Z,1015.62
2017-06-19T03:41:17.420Z,1015.62
2017-06-19T03:42:17.408Z,1015.64
2017-06-19T03:43:17.391Z,1015.63
2017-06-19T03:44:17.382Z,1015.64
2017-06-19T03:45:17.364Z,1015.61
2017-06-19T03:46:17.350Z,1015.65
2017-06-19T03:47:17.340Z,1015.63
2017-06-19T03:48:17.324Z,1015.66
2017-06-19T03:49:17.311Z,1015.63
2017-06-19T03:50:17.291Z,1015.62
2017-06-19T03:51:17.284Z,1015.61
2017-06-19T03:52:17.264Z,1015.62
2017-06-19T03:53:17.254Z,1015.62
2017-06-19T03:54:17.242Z,1015.63
2017-06-19T03:55:17.222Z,1015.63
2017-06-19T03:56:17.211Z,1015.68
2017-06-19T03:57:17.201Z,1015.71
2017-06-19T03:58:17.182Z,1015.72
2017-06-19T03:59:17.168Z,1015.71
2017-06-19T04:00:17.156Z,1015.74
2017-06-19T04:01:17.138Z,1015.73
2017-06-19T04:02:17.122Z,1015.76
2017-06-19T04:03:17.111Z,1015.74
2017-06-19T04:04:17.091Z,1015.75
2017-06-19T04:05:17.091Z,1015.73
2017-06-19T04:06:17.070Z,1015.74
2017-06-19T04:07:17.054Z,1015.71
2017-06-19T04:08:17.042Z,1015.73
2017-06-19T04:09:17.030Z,1015.75
2017-06-19T04:10:17.012Z,1015.74
2017-06-19T04:11:17.003Z,1015.76
2017-06-19T04:12:16.984Z,1015.73
2017-06-19T04:13:16.969Z,1015.76
2017-06-19T04:14:16.962Z,1015.77
2017-06-19T04:15:16.942Z,1015.76
2017-06-19T04:16:17.043Z,1015.73
2017-06-19T04:17:16.914Z,1015.77
2017-06-19T04:18:16.895Z,1015.73
2017-06-19T04:19:16.884Z,1015.72
2017-06-19T04:20:16.870Z,1015.69
2017-06-19T04:21:16.852Z,1015.68
2017-06-19T04:22:16.842Z,1015.7
2017-06-19T04:23:16.827Z,1015.68
2017-06-19T04:24:16.824Z,1015.72
2017-06-19T04:25:16.807Z,1015.73
2017-06-19T04:26:16.793Z,1015.79
2017-06-19T04:27:16.770Z,1015.75
2017-06-19T04:28:16.762Z,1015.78
2017-06-19T04:29:16.743Z,1015.73
2017-06-19T04:30:16.727Z,1015.73
2017-06-19T04:31:16.712Z,1015.73
2017-06-19T04:32:16.703Z,1015.67
2017-06-19T04:33:16.686Z,1015.71
2017-06-19T04:34:16.674Z,1015.73
2017-06-19T04:35:16.661Z,1015.7
2017-06-19T04:36:16.663Z,1015.72
2017-06-19T04:37:16.637Z,1015.68
2017-06-19T04:38:16.670Z,1015.72
2017-06-19T04:39:16.598Z,1015.72
2017-06-19T04:40:16.640Z,1015.76
2017-06-19T04:41:16.572Z,1015.75
2017-06-19T04:42:16.558Z,1015.78
2017-06-19T04:43:16.543Z,1015.74
2017-06-19T04:44:16.529Z,1015.76
2017-06-19T04:45:16.514Z,1015.75
2017-06-19T04:46:16.552Z,1015.76
2017-06-19T04:47:16.490Z,1015.73
2017-06-19T04:48:16.472Z,1015.7
2017-06-19T04:49:16.461Z,1015.72
2017-06-19T04:50:16.450Z,1015.69
2017-06-19T04:51:16.431Z,1015.68
2017-06-19T04:52:16.419Z,1015.71
2017-06-19T04:53:16.403Z,1015.7
2017-06-19T04:54:16.389Z,1015.68
2017-06-19T04:55:16.380Z,1015.69
2017-06-19T04:56:16.363Z,1015.66
2017-06-19T04:57:16.349Z,1015.7
2017-06-19T04:58:16.335Z,1015.68
2017-06-19T04:59:16.319Z,1015.7
2017-06-19T05:00:16.308Z,1015.64
2017-06-19T05:01:16.293Z,1015.67
2017-06-19T05:02:16.278Z,1015.7
2017-06-19T05:03:16.271Z,1015.67
2017-06-19T05:04:16.258Z,1015.69
2017-06-19T05:05:16.242Z,1015.68
2017-06-19T05:06:16.226Z,1015.7
2017-06-19T05:07:16.211Z,1015.72
2017-06-19T05:08:16.196Z,1015.72
2017-06-19T05:09:16.181Z,1015.72
2017-06-19T05:10:16.168Z,1015.68
2017-06-19T05:11:16.156Z,1015.67
2017-06-19T05:12:16.139Z,1015.67
2017-06-19T05:13:16.128Z,1015.7
2017-06-19T05:14:16.112Z,1015.68
2017-06-19T05:15:16.102Z,1015.69
2017-06-19T05:16:16.092Z,1015.71
2017-06-19T05:17:16.076Z,1015.71
2017-06-19T05:18:16.063Z,1015.72
2017-06-19T05:19:16.048Z,1015.72
2017-06-19T05:20:16.032Z,1015.74
2017-06-19T05:21:16.019Z,1015.71
2017-06-19T05:22:16.005Z,1015.71
2017-06-19T05:23:15.993Z,1015.73
2017-06-19T05:24:15.978Z,1015.7
2017-06-19T05:25:15.973Z,1015.71
2017-06-19T05:26:15.950Z,1015.73
2017-06-19T05:27:15.936Z,1015.72
2017-06-19T05:28:15.930Z,1015.72
2017-06-19T05:29:15.919Z,1015.77
2017-06-19T05:30:15.895Z,1015.73
2017-06-19T05:31:15.881Z,1015.75
2017-06-19T05:32:15.872Z,1015.75
2017-06-19T05:33:15.856Z,1015.72
2017-06-19T05:34:15.844Z,1015.74
2017-06-19T05:35:15.833Z,1015.76
2017-06-19T05:36:15.817Z,1015.78
2017-06-19T05:37:15.804Z,1015.78
2017-06-19T05:38:15.793Z,1015.79
2017-06-19T05:39:15.778Z,1015.79
2017-06-19T05:40:15.762Z,1015.8
2017-06-19T05:41:15.753Z,1015.77
2017-06-19T05:42:15.738Z,1015.78
2017-06-19T05:43:15.724Z,1015.77
2017-06-19T05:44:15.710Z,1015.78
2017-06-19T05:45:15.699Z,1015.81
2017-06-19T05:46:15.683Z,1015.81
2017-06-19T05:47:15.673Z,1015.81
2017-06-19T05:48:15.664Z,1015.81
2017-06-19T05:49:15.644Z,1015.8
2017-06-19T05:50:15.632Z,1015.8
2017-06-19T05:51:15.621Z,1015.8
2017-06-19T05:52:15.607Z,1015.8
2017-06-19T05:53:15.591Z,1015.81
2017-06-19T05:54:15.583Z,1015.82
2017-06-19T05:55:15.568Z,1015.85
2017-06-19T05:56:15.554Z,1015.82
2017-06-19T05:57:15.542Z,1015.79
2017-06-19T05:58:15.527Z,1015.81
2017-06-19T05:59:15.514Z,1015.76
2017-06-19T06:00:15.498Z,1015.77
2017-06-19T06:01:15.491Z,1015.75
2017-06-19T06:02:15.472Z,1015.76
2017-06-19T06:03:15.464Z,1015.76
2017-06-19T06:04:15.451Z,1015.78
2017-06-19T06:05:15.434Z,1015.76
2017-06-19T06:06:15.425Z,1015.82
2017-06-19T06:07:15.413Z,1015.8
2017-06-19T06:08:15.395Z,1015.79
2017-06-19T06:09:15.384Z,1015.79
2017-06-19T06:10:15.374Z,1015.73
2017-06-19T06:11:15.362Z,1015.75
2017-06-19T06:12:15.348Z,1015.76
2017-06-19T06:13:15.331Z,1015.77
2017-06-19T06:14:15.316Z,1015.75
2017-06-19T06:15:15.305Z,1015.74
2017-06-19T06:16:15.294Z,1015.72
2017-06-19T06:17:15.284Z,1015.75
2017-06-19T06:18:15.274Z,1015.71
2017-06-19T06:19:15.256Z,1015.73
2017-06-19T06:20:15.242Z,1015.72
2017-06-19T06:21:15.232Z,1015.74
2017-06-19T06:22:15.215Z,1015.69
2017-06-19T06:23:15.201Z,1015.74
2017-06-19T06:24:15.191Z,1015.72
2017-06-19T06:25:15.177Z,1015.73
2017-06-19T06:26:15.170Z,1015.74
2017-06-19T06:27:15.152Z,1015.76
2017-06-19T06:28:15.139Z,1015.71
2017-06-19T06:29:15.131Z,1015.75
2017-06-19T06:30:15.125Z,1015.77
2017-06-19T06:31:15.109Z,1015.76
2017-06-19T06:32:15.095Z,1015.76
2017-06-19T06:33:15.084Z,1015.73
2017-06-19T06:34:15.068Z,1015.71
2017-06-19T06:35:15.053Z,1015.72
2017-06-19T06:36:15.043Z,1015.72
2017-06-19T06:37:15.027Z,1015.73
2017-06-19T06:38:15.025Z,1015.7
2017-06-19T06:39:15.001Z,1015.7
2017-06-19T06:40:14.995Z,1015.68
2017-06-19T06:41:14.981Z,1015.68
2017-06-19T06:42:14.975Z,1015.66
2017-06-19T06:43:14.953Z,1015.69
2017-06-19T06:44:14.942Z,1015.72
2017-06-19T06:45:14.932Z,1015.7
2017-06-19T06:46:14.918Z,1015.73
2017-06-19T06:47:14.903Z,1015.74
2017-06-19T06:48:14.895Z,1015.71
2017-06-19T06:49:14.879Z,1015.7
2017-06-19T06:50:14.868Z,1015.67
2017-06-19T06:51:14.856Z,1015.68
2017-06-19T06:52:14.855Z,1015.66
2017-06-19T06:53:14.834Z,1015.68
2017-06-19T06:54:14.826Z,1015.68
2017-06-19T06:55:14.815Z,1015.68
2017-06-19T06:56:14.803Z,1015.67
2017-06-19T06:57:14.805Z,1015.67
2017-06-19T06:58:14.774Z,1015.66
2017-06-19T06:59:14.764Z,1015.66
2017-06-19T07:00:14.754Z,1015.66
2017-06-19T07:01:14.746Z,1015.65
2017-06-19T07:02:14.729Z,1015.61
2017-06-19T07:03:14.713Z,1015.59
2017-06-19T07:04:14.704Z,1015.6
2017-06-19T07:05:14.692Z,1015.62
2017-06-19T07:06:14.693Z,1015.59
2017-06-19T07:07:14.676Z,1015.61
2017-06-19T07:08:14.660Z,1015.61
2017-06-19T07:09:14.644Z,1015.6
2017-06-19T07:10:14.637Z,1015.6
2017-06-19T07:11:14.625Z,1015.6
2017-06-19T07:12:14.616Z,1015.63
2017-06-19T07:13:14.599Z,1015.63
2017-06-19T07:14:14.594Z,1015.61
2017-06-19T07:15:14.578Z,1015.62
2017-06-19T07:16:14.571Z,1015.62
2017-06-19T07:17:14.555Z,1015.63
2017-06-19T07:18:14.546Z,1015.65
2017-06-19T07:19:14.535Z,1015.65
2017-06-19T07:20:14.524Z,1015.64
2017-06-19T07:21:14.514Z,1015.64
2017-06-19T07:22:14.504Z,1015.65
2017-06-19T07:23:14.491Z,1015.61
2017-06-19T07:24:14.474Z,1015.62
2017-06-19T07:25:14.465Z,1015.65
2017-06-19T07:26:14.455Z,1015.7
2017-06-19T07:27:14.446Z,1015.67
2017-06-19T07:28:14.434Z,1015.67
2017-06-19T07:29:14.427Z,1015.65
2017-06-19T07:30:14.414Z,1015.65
2017-06-19T07:31:14.414Z,1015.67
2017-06-19T07:32:14.394Z,1015.64
2017-06-19T07:33:14.381Z,1015.65
2017-06-19T07:34:14.366Z,1015.61
2017-06-19T07:35:14.362Z,1015.62
2017-06-19T07:36:14.349Z,1015.64
2017-06-19T07:37:14.339Z,1015.64
2017-06-19T07:38:14.321Z,1015.65
2017-06-19T07:39:14.313Z,1015.65
2017-06-19T07:40:14.306Z,1015.65
2017-06-19T07:41:14.293Z,1015.63
2017-06-19T07:42:14.282Z,1015.6
2017-06-19T07:43:14.270Z,1015.62
2017-06-19T07:44:14.262Z,1015.61
2017-06-19T07:45:14.248Z,1015.63
2017-06-19T07:46:14.242Z,1015.63
2017-06-19T07:47:14.231Z,1015.63
2017-06-19T07:48:14.224Z,1015.63
2017-06-19T07:49:14.211Z,1015.62
2017-06-19T07:50:14.200Z,1015.62
2017-06-19T07:51:14.192Z,1015.6
2017-06-19T07:52:14.179Z,1015.67
2017-06-19T07:53:14.166Z,1015.64
2017-06-19T07:54:14.160Z,1015.66
2017-06-19T07:55:14.150Z,1015.62
2017-06-19T07:56:14.137Z,1015.62
2017-06-19T07:57:14.126Z,1015.58
2017-06-19T07:58:14.120Z,1015.56
2017-06-19T07:59:14.109Z,1015.54
2017-06-19T08:00:14.094Z,1015.51
2017-06-19T08:01:14.086Z,1015.52
2017-06-19T08:02:14.082Z,1015.51
2017-06-19T08:03:14.067Z,1015.49
2017-06-19T08:04:14.061Z,1015.48
2017-06-19T08:05:14.052Z,1015.51
2017-06-19T08:06:14.042Z,1015.47
2017-06-19T08:07:14.022Z,1015.48
2017-06-19T08:08:14.022Z,1015.47
2017-06-19T08:09:14.006Z,1015.43
2017-06-19T08:10:13.994Z,1015.44
2017-06-19T08:11:13.993Z,1015.45
2017-06-19T08:12:13.978Z,1015.44
2017-06-19T08:13:13.972Z,1015.43
2017-06-19T08:14:13.962Z,1015.38
2017-06-19T08:15:13.942Z,1015.41
2017-06-19T08:16:13.935Z,1015.43
2017-06-19T08:17:13.926Z,1015.38
2017-06-19T08:18:13.913Z,1015.38
2017-06-19T08:19:13.902Z,1015.38
2017-06-19T08:20:13.893Z,1015.41
2017-06-19T08:21:13.883Z,1015.38
2017-06-19T08:22:13.873Z,1015.37
2017-06-19T08:23:13.862Z,1015.37
2017-06-19T08:24:13.851Z,1015.33
2017-06-19T08:25:13.842Z,1015.28
2017-06-19T08:26:13.836Z,1015.35
2017-06-19T08:27:13.822Z,1015.31
2017-06-19T08:28:13.821Z,1015.33
2017-06-19T08:29:13.808Z,1015.33
2017-06-19T08:30:13.805Z,1015.31
2017-06-19T08:31:13.793Z,1015.29
2017-06-19T08:32:13.780Z,1015.33
2017-06-19T08:33:13.766Z,1015.27
2017-06-19T08:34:13.764Z,1015.32
2017-06-19T08:35:13.756Z,1015.3
2017-06-19T08:36:13.742Z,1015.29
2017-06-19T08:37:13.732Z,1015.3
2017-06-19T08:38:13.721Z,1015.26
2017-06-19T08:39:13.712Z,1015.26
2017-06-19T08:40:13.701Z,1015.23
2017-06-19T08:41:13.701Z,1015.24
2017-06-19T08:42:13.704Z,1015.23
2017-06-19T08:43:13.680Z,1015.22
2017-06-19T08:44:13.697Z,1015.23
2017-06-19T08:45:13.664Z,1015.25
2017-06-19T08:46:13.644Z,1015.24
2017-06-19T08:47:13.635Z,1015.22
2017-06-19T08:48:13.632Z,1015.23
2017-06-19T08:49:13.620Z,1015.24
2017-06-19T08:50:13.610Z,1015.2
2017-06-19T08:51:13.600Z,1015.15
2017-06-19T08:52:13.591Z,1015.13
2017-06-19T08:53:13.584Z,1015.13
2017-06-19T08:54:13.574Z,1015.14
2017-06-19T08:55:13.573Z,1015.12
2017-06-19T08:56:13.554Z,1015.08
2017-06-19T08:57:13.551Z,1015.06
2017-06-19T08:58:13.543Z,1015.04
2017-06-19T08:59:13.526Z,1015.02
2017-06-19T09:00:13.523Z,1015.02
2017-06-19T09:01:13.510Z,1015.05
2017-06-19T09:02:13.501Z,1015.01
2017-06-19T09:03:13.495Z,1015
2017-06-19T09:04:13.489Z,1015.01
2017-06-19T09:05:13.474Z,1015
2017-06-19T09:06:13.472Z,1014.99
2017-06-19T09:07:13.458Z,1014.99
2017-06-19T09:08:13.450Z,1014.97
2017-06-19T09:09:13.443Z,1014.94
2017-06-19T09:10:13.437Z,1014.96
2017-06-19T09:11:13.425Z,1014.94
2017-06-19T09:12:13.422Z,1014.96
2017-06-19T09:13:13.407Z,1014.94
2017-06-19T09:14:13.402Z,1014.95
2017-06-19T09:15:13.490Z,1014.92
2017-06-19T09:16:13.391Z,1014.86
2017-06-19T09:17:13.376Z,1014.85
2017-06-19T09:18:13.370Z,1014.86
2017-06-19T09:19:13.361Z,1014.89
2017-06-19T09:20:13.352Z,1014.86
2017-06-19T09:21:13.344Z,1014.9
2017-06-19T09:22:13.334Z,1014.85
2017-06-19T09:23:13.330Z,1014.84
2017-06-19T09:24:13.316Z,1014.83
2017-06-19T09:25:13.309Z,1014.84
2017-06-19T09:26:13.302Z,1014.85
2017-06-19T09:27:13.291Z,1014.86
2017-06-19T09:28:13.286Z,1014.82
2017-06-19T09:29:13.280Z,1014.87
2017-06-19T09:30:13.266Z,1014.81
2017-06-19T09:31:13.365Z,1014.79
2017-06-19T09:32:13.251Z,1014.76
2017-06-19T09:33:13.334Z,1014.79
2017-06-19T09:34:13.236Z,1014.85
2017-06-19T09:35:13.230Z,1014.82
2017-06-19T09:36:13.221Z,1014.8
2017-06-19T09:37:13.231Z,1014.77
2017-06-19T09:38:13.210Z,1014.76
2017-06-19T09:39:13.201Z,1014.75
2017-06-19T09:40:13.190Z,1014.76
2017-06-19T09:41:13.180Z,1014.71
2017-06-19T09:42:13.169Z,1014.75
2017-06-19T09:43:13.209Z,1014.72
2017-06-19T09:44:13.151Z,1014.72
2017-06-19T09:45:13.149Z,1014.71
2017-06-19T09:46:13.140Z,1014.69
2017-06-19T09:47:13.127Z,1014.63
2017-06-19T09:48:13.126Z,1014.62
2017-06-19T09:49:13.114Z,1014.59
2017-06-19T09:50:13.106Z,1014.62
2017-06-19T09:51:13.098Z,1014.71
2017-06-19T09:52:13.089Z,1014.66
2017-06-19T09:53:13.083Z,1014.67
2017-06-19T09:54:13.079Z,1014.68
2017-06-19T09:55:13.070Z,1014.65
2017-06-19T09:56:13.060Z,1014.68
2017-06-19T09:57:13.061Z,1014.66
2017-06-19T09:58:13.049Z,1014.67
2017-06-19T09:59:13.038Z,1014.69
2017-06-19T10:00:13.029Z,1014.65
2017-06-19T10:01:13.020Z,1014.62
2017-06-19T10:02:13.019Z,1014.63
2017-06-19T10:03:13.009Z,1014.65
2017-06-19T10:04:12.998Z,1014.64
2017-06-19T10:05:12.989Z,1014.61
2017-06-19T10:06:12.990Z,1014.66
2017-06-19T10:07:12.976Z,1014.68
2017-06-19T10:08:12.969Z,1014.66
2017-06-19T10:09:12.960Z,1014.66
2017-06-19T10:10:12.955Z,1014.65
2017-06-19T10:11:12.950Z,1014.64
2017-06-19T10:12:12.939Z,1014.67
2017-06-19T10:13:12.927Z,1014.68
2017-06-19T10:14:12.934Z,1014.66
2017-06-19T10:15:12.914Z,1014.67
2017-06-19T10:16:12.909Z,1014.61
2017-06-19T10:17:12.906Z,1014.63
2017-06-19T10:18:12.899Z,1014.62
2017-06-19T10:19:12.888Z,1014.59
2017-06-19T10:20:12.979Z,1014.58
2017-06-19T10:21:12.878Z,1014.52
2017-06-19T10:22:12.870Z,1014.51
2017-06-19T10:23:12.861Z,1014.53
2017-06-19T10:24:12.852Z,1014.52
2017-06-19T10:25:12.849Z,1014.53
2017-06-19T10:26:12.890Z,1014.48
2017-06-19T10:27:12.838Z,1014.54
2017-06-19T10:28:12.828Z,1014.53
2017-06-19T10:29:12.828Z,1014.53
2017-06-19T10:30:12.819Z,1014.48
2017-06-19T10:31:12.819Z,1014.49
2017-06-19T10:32:12.809Z,1014.47
2017-06-19T10:33:12.798Z,1014.47
2017-06-19T10:34:12.798Z,1014.41
2017-06-19T10:35:12.788Z,1014.37
2017-06-19T10:36:12.789Z,1014.37
2017-06-19T10:37:12.777Z,1014.34
2017-06-19T10:38:12.769Z,1014.33
2017-06-19T10:39:12.769Z,1014.32
2017-06-19T10:40:12.758Z,1014.32
2017-06-19T10:41:12.760Z,1014.33
2017-06-19T10:42:12.748Z,1014.31
2017-06-19T10:43:12.747Z,1014.32
2017-06-19T10:44:12.740Z,1014.29
2017-06-19T10:45:12.728Z,1014.26
2017-06-19T10:46:12.726Z,1014.26
2017-06-19T10:47:12.719Z,1014.26
2017-06-19T10:48:12.716Z,1014.25
2017-06-19T10:49:12.708Z,1014.24
2017-06-19T10:50:12.709Z,1014.25
2017-06-19T10:51:12.701Z,1014.3
2017-06-19T10:52:12.690Z,1014.2
2017-06-19T10:53:12.686Z,1014.25
2017-06-19T10:54:12.678Z,1014.2
2017-06-19T10:55:12.677Z,1014.2
2017-06-19T10:56:12.668Z,1014.17
2017-06-19T10:57:12.659Z,1014.14
2017-06-19T10:58:12.651Z,1014.1
2017-06-19T10:59:12.647Z,1014.09
2017-06-19T11:00:12.647Z,1014.08
2017-06-19T11:01:12.635Z,1014.08
2017-06-19T11:02:12.629Z,1014.04
2017-06-19T11:03:12.623Z,1014.05
2017-06-19T11:04:12.617Z,1014.05
2017-06-19T11:05:12.618Z,1014.03
2017-06-19T11:06:12.610Z,1013.96
2017-06-19T11:07:12.598Z,1013.97
2017-06-19T11:08:12.594Z,1013.98
2017-06-19T11:09:12.588Z,1013.98
2017-06-19T11:10:12.596Z,1013.97
2017-06-19T11:11:12.574Z,1013.99
2017-06-19T11:12:12.567Z,1013.97
2017-06-19T11:13:12.567Z,1014
2017-06-19T11:14:12.555Z,1013.96
2017-06-19T11:15:12.555Z,1013.95
2017-06-19T11:16:12.547Z,1013.95
2017-06-19T11:17:12.536Z,1013.92
2017-06-19T11:18:12.530Z,1013.93
2017-06-19T11:19:12.527Z,1013.89
2017-06-19T11:20:12.516Z,1013.9
2017-06-19T11:21:12.509Z,1013.9
2017-06-19T11:22:12.517Z,1013.91
2017-06-19T11:23:12.498Z,1013.88
2017-06-19T11:24:12.489Z,1013.85
2017-06-19T11:25:12.487Z,1013.8
2017-06-19T11:26:12.476Z,1013.83
2017-06-19T11:27:12.472Z,1013.85
2017-06-19T11:28:12.467Z,1013.83
2017-06-19T11:29:12.462Z,1013.84
2017-06-19T11:30:12.457Z,1013.87
2017-06-19T11:31:12.457Z,1013.83
2017-06-19T11:32:12.445Z,1013.82
2017-06-19T11:33:12.437Z,1013.8
2017-06-19T11:34:12.426Z,1013.82
2017-06-19T11:35:12.432Z,1013.78
2017-06-19T11:36:12.417Z,1013.78
2017-06-19T11:37:12.414Z,1013.76
2017-06-19T11:38:12.408Z,1013.75
2017-06-19T11:39:12.403Z,1013.77
2017-06-19T11:40:12.398Z,1013.72
2017-06-19T11:41:12.387Z,1013.78
2017-06-19T11:42:12.382Z,1013.79
2017-06-19T11:43:12.378Z,1013.73
2017-06-19T11:44:12.378Z,1013.74
2017-06-19T11:45:12.369Z,1013.71
2017-06-19T11:46:12.358Z,1013.72
2017-06-19T11:47:12.351Z,1013.71
2017-06-19T11:48:12.346Z,1013.75
2017-06-19T11:49:12.344Z,1013.68
2017-06-19T11:50:12.332Z,1013.69
2017-06-19T11:51:12.326Z,1013.68
2017-06-19T11:52:12.323Z,1013.7
2017-06-19T11:53:12.316Z,1013.72
2017-06-19T11:54:12.315Z,1013.64
2017-06-19T11:55:12.305Z,1013.63
2017-06-19T11:56:12.304Z,1013.6
2017-06-19T11:57:12.291Z,1013.62
2017-06-19T11:58:12.289Z,1013.6
2017-06-19T11:59:12.288Z,1013.57
2017-06-19T12:00:12.287Z,1013.57
2017-06-19T12:01:12.273Z,1013.56
2017-06-19T12:02:12.267Z,1013.53
2017-06-19T12:03:12.263Z,1013.53
2017-06-19T12:04:12.258Z,1013.52
2017-06-19T12:05:12.255Z,1013.53
2017-06-19T12:06:12.247Z,1013.54
2017-06-19T12:07:12.246Z,1013.56